sensor_id;sensor_type;location;lat;lon;timestamp;pressure;altitude;pressure_sealevel;temperature;humidity
38812;BME280;24553;51.640;-0.752;2023-09-07T00:00:11;101177.91;;;21.65;100.00
38812;BME280;24553;51.640;-0.752;2023-09-07T00:02:37;101158.19;;;21.65;100.00
38812;BME280;24553;51.640;-0.752;2023-09-07T00:05:02;101160.16;;;21.69;100.00
38812;BME280;24553;51.640;-0.752;2023-09-07T00:07:29;101158.63;;;21.56;100.00
38812;BME280;24553;51.640;-0.752;2023-09-07T00:09:54;101161.75;;;21.48;100.00
38812;BME280;24553;51.640;-0.752;2023-09-07T00:12:19;101155.69;;;21.41;100.00
38812;BME280;24553;51.640;-0.752;2023-09-07T00:14:45;101156.09;;;21.33;100.00
38812;BME280;24553;51.640;-0.752;2023-09-07T00:17:11;101152.22;;;21.29;100.00
38812;BME280;24553;51.640;-0.752;2023-09-07T00:19:36;101154.13;;;21.28;100.00
38812;BME280;24553;51.640;-0.752;2023-09-07T00:22:03;101150.28;;;21.24;100.00
38812;BME280;24553;51.640;-0.752;2023-09-07T00:24:30;101160.50;;;21.22;100.00
38812;BME280;24553;51.640;-0.752;2023-09-07T00:26:56;101159.75;;;21.27;100.00
38812;BME280;24553;51.640;-0.752;2023-09-07T00:29:21;101156.41;;;21.37;100.00
38812;BME280;24553;51.640;-0.752;2023-09-07T00:31:47;101141.47;;;21.46;100.00
38812;BME280;24553;51.640;-0.752;2023-09-07T00:34:12;101146.19;;;21.55;100.00
38812;BME280;24553;51.640;-0.752;2023-09-07T00:36:37;101145.63;;;21.53;100.00
38812;BME280;24553;51.640;-0.752;2023-09-07T00:39:03;101158.47;;;21.46;100.00
38812;BME280;24553;51.640;-0.752;2023-09-07T00:41:28;101164.19;;;21.50;100.00
38812;BME280;24553;51.640;-0.752;2023-09-07T00:43:54;101148.06;;;21.55;100.00
38812;BME280;24553;51.640;-0.752;2023-09-07T00:48:46;101156.94;;;21.50;100.00
38812;BME280;24553;51.640;-0.752;2023-09-07T00:51:11;101162.25;;;21.45;100.00
38812;BME280;24553;51.640;-0.752;2023-09-07T00:53:37;101159.09;;;21.37;100.00
38812;BME280;24553;51.640;-0.752;2023-09-07T00:56:03;101160.66;;;21.32;100.00
38812;BME280;24553;51.640;-0.752;2023-09-07T00:58:28;101160.81;;;21.26;100.00
38812;BME280;24553;51.640;-0.752;2023-09-07T01:00:54;101154.19;;;21.17;100.00
38812;BME280;24553;51.640;-0.752;2023-09-07T01:03:20;101160.19;;;21.02;100.00
38812;BME280;24553;51.640;-0.752;2023-09-07T01:06:12;101168.41;;;20.95;100.00
38812;BME280;24553;51.640;-0.752;2023-09-07T01:08:46;101162.25;;;20.83;100.00
38812;BME280;24553;51.640;-0.752;2023-09-07T01:11:17;101166.34;;;20.85;100.00
38812;BME280;24553;51.640;-0.752;2023-09-07T01:13:43;101169.03;;;20.85;100.00
38812;BME280;24553;51.640;-0.752;2023-09-07T01:16:12;101163.00;;;20.78;100.00
38812;BME280;24553;51.640;-0.752;2023-09-07T01:18:38;101155.16;;;20.77;100.00
38812;BME280;24553;51.640;-0.752;2023-09-07T01:21:08;101147.19;;;20.70;100.00
38812;BME280;24553;51.640;-0.752;2023-09-07T01:23:37;101152.19;;;20.61;100.00
38812;BME280;24553;51.640;-0.752;2023-09-07T01:26:05;101158.88;;;20.59;100.00
38812;BME280;24553;51.640;-0.752;2023-09-07T01:28:30;101152.66;;;20.58;100.00
38812;BME280;24553;51.640;-0.752;2023-09-07T01:30:56;101155.22;;;20.53;100.00
38812;BME280;24553;51.640;-0.752;2023-09-07T01:33:22;101165.56;;;20.56;100.00
38812;BME280;24553;51.640;-0.752;2023-09-07T01:35:47;101151.97;;;20.51;100.00
38812;BME280;24553;51.640;-0.752;2023-09-07T01:38:13;101153.47;;;20.47;100.00
38812;BME280;24553;51.640;-0.752;2023-09-07T01:40:38;101144.84;;;20.45;100.00
38812;BME280;24553;51.640;-0.752;2023-09-07T01:43:03;101149.06;;;20.41;100.00
38812;BME280;24553;51.640;-0.752;2023-09-07T01:45:29;101146.75;;;20.33;100.00
38812;BME280;24553;51.640;-0.752;2023-09-07T01:47:54;101148.28;;;20.29;100.00
38812;BME280;24553;51.640;-0.752;2023-09-07T01:50:19;101138.16;;;20.19;100.00
38812;BME280;24553;51.640;-0.752;2023-09-07T01:52:48;101139.09;;;20.13;100.00
38812;BME280;24553;51.640;-0.752;2023-09-07T01:55:16;101129.88;;;20.09;100.00
38812;BME280;24553;51.640;-0.752;2023-09-07T01:57:41;101126.28;;;19.91;100.00
38812;BME280;24553;51.640;-0.752;2023-09-07T02:00:07;101122.66;;;19.86;100.00
38812;BME280;24553;51.640;-0.752;2023-09-07T02:02:32;101112.72;;;19.86;100.00
38812;BME280;24553;51.640;-0.752;2023-09-07T02:04:58;101110.34;;;19.90;100.00
38812;BME280;24553;51.640;-0.752;2023-09-07T02:07:23;101110.84;;;19.87;100.00
38812;BME280;24553;51.640;-0.752;2023-09-07T02:09:49;101108.97;;;19.87;100.00
38812;BME280;24553;51.640;-0.752;2023-09-07T02:12:14;101113.19;;;19.83;100.00
38812;BME280;24553;51.640;-0.752;2023-09-07T02:14:39;101103.38;;;19.65;100.00
38812;BME280;24553;51.640;-0.752;2023-09-07T02:17:05;101102.66;;;19.58;100.00
38812;BME280;24553;51.640;-0.752;2023-09-07T02:19:30;101110.03;;;19.51;100.00
38812;BME280;24553;51.640;-0.752;2023-09-07T02:21:55;101106.31;;;19.52;100.00
38812;BME280;24553;51.640;-0.752;2023-09-07T02:24:21;101116.00;;;19.53;100.00
38812;BME280;24553;51.640;-0.752;2023-09-07T02:26:46;101117.75;;;19.47;100.00
38812;BME280;24553;51.640;-0.752;2023-09-07T02:29:12;101122.78;;;19.44;100.00
38812;BME280;24553;51.640;-0.752;2023-09-07T02:31:39;101121.03;;;19.37;100.00
38812;BME280;24553;51.640;-0.752;2023-09-07T02:34:04;101120.44;;;19.35;100.00
38812;BME280;24553;51.640;-0.752;2023-09-07T02:36:29;101130.16;;;19.36;100.00
38812;BME280;24553;51.640;-0.752;2023-09-07T02:38:55;101122.78;;;19.32;100.00
38812;BME280;24553;51.640;-0.752;2023-09-07T02:41:20;101122.09;;;19.36;100.00
38812;BME280;24553;51.640;-0.752;2023-09-07T02:43:45;101122.09;;;19.36;100.00
38812;BME280;24553;51.640;-0.752;2023-09-07T02:46:11;101120.31;;;19.30;100.00
38812;BME280;24553;51.640;-0.752;2023-09-07T02:48:36;101119.28;;;19.31;100.00
38812;BME280;24553;51.640;-0.752;2023-09-07T02:51:01;101120.91;;;19.32;100.00
38812;BME280;24553;51.640;-0.752;2023-09-07T02:53:27;101113.19;;;19.24;100.00
38812;BME280;24553;51.640;-0.752;2023-09-07T02:55:52;101108.78;;;19.18;100.00
38812;BME280;24553;51.640;-0.752;2023-09-07T02:58:17;101112.38;;;19.12;100.00
38812;BME280;24553;51.640;-0.752;2023-09-07T03:00:44;101111.22;;;19.08;100.00
38812;BME280;24553;51.640;-0.752;2023-09-07T03:03:11;101102.78;;;19.04;100.00
38812;BME280;24553;51.640;-0.752;2023-09-07T03:05:39;101106.53;;;19.03;100.00
38812;BME280;24553;51.640;-0.752;2023-09-07T03:08:04;101108.97;;;19.05;100.00
38812;BME280;24553;51.640;-0.752;2023-09-07T03:10:29;101105.38;;;19.11;100.00
38812;BME280;24553;51.640;-0.752;2023-09-07T03:12:55;101102.34;;;19.19;100.00
38812;BME280;24553;51.640;-0.752;2023-09-07T03:15:20;101101.50;;;19.18;100.00
38812;BME280;24553;51.640;-0.752;2023-09-07T03:17:45;101094.16;;;19.14;100.00
38812;BME280;24553;51.640;-0.752;2023-09-07T03:20:11;101095.44;;;19.11;100.00
38812;BME280;24553;51.640;-0.752;2023-09-07T03:22:43;101099.41;;;19.09;100.00
38812;BME280;24553;51.640;-0.752;2023-09-07T03:25:09;101090.88;;;19.12;100.00
38812;BME280;24553;51.640;-0.752;2023-09-07T03:27:35;101092.75;;;19.11;100.00
38812;BME280;24553;51.640;-0.752;2023-09-07T03:30:01;101092.75;;;19.11;100.00
38812;BME280;24553;51.640;-0.752;2023-09-07T03:32:26;101096.72;;;19.09;100.00
38812;BME280;24553;51.640;-0.752;2023-09-07T03:34:57;101096.50;;;19.10;100.00
38812;BME280;24553;51.640;-0.752;2023-09-07T03:37:22;101089.47;;;18.98;100.00
38812;BME280;24553;51.640;-0.752;2023-09-07T03:39:47;101090.72;;;18.83;100.00
38812;BME280;24553;51.640;-0.752;2023-09-07T03:42:14;101093.41;;;18.83;100.00
38812;BME280;24553;51.640;-0.752;2023-09-07T03:44:39;101085.25;;;18.90;100.00
38812;BME280;24553;51.640;-0.752;2023-09-07T03:47:05;101081.50;;;18.91;100.00
38812;BME280;24553;51.640;-0.752;2023-09-07T03:49:30;101080.44;;;18.92;100.00
38812;BME280;24553;51.640;-0.752;2023-09-07T03:51:55;101085.00;;;18.91;100.00
38812;BME280;24553;51.640;-0.752;2023-09-07T03:54:21;101084.66;;;18.88;100.00
38812;BME280;24553;51.640;-0.752;2023-09-07T03:56:46;101080.91;;;18.89;100.00
38812;BME280;24553;51.640;-0.752;2023-09-07T03:59:11;101079.28;;;18.88;100.00
38812;BME280;24553;51.640;-0.752;2023-09-07T04:01:37;101075.66;;;18.82;100.00
38812;BME280;24553;51.640;-0.752;2023-09-07T04:04:02;101081.38;;;18.86;100.00
38812;BME280;24553;51.640;-0.752;2023-09-07T04:06:28;101070.97;;;18.89;100.00
38812;BME280;24553;51.640;-0.752;2023-09-07T04:08:53;101074.50;;;18.90;100.00
38812;BME280;24553;51.640;-0.752;2023-09-07T04:11:18;101066.44;;;18.90;100.00
38812;BME280;24553;51.640;-0.752;2023-09-07T04:13:44;101064.56;;;18.90;100.00
38812;BME280;24553;51.640;-0.752;2023-09-07T04:16:09;101074.38;;;18.85;100.00
38812;BME280;24553;51.640;-0.752;2023-09-07T04:18:35;101076.00;;;18.86;100.00
38812;BME280;24553;51.640;-0.752;2023-09-07T04:21:07;101056.38;;;18.85;100.00
38812;BME280;24553;51.640;-0.752;2023-09-07T04:23:33;101056.25;;;18.92;100.00
38812;BME280;24553;51.640;-0.752;2023-09-07T04:26:10;101050.31;;;18.90;100.00
38812;BME280;24553;51.640;-0.752;2023-09-07T04:28:37;101047.84;;;18.88;100.00
38812;BME280;24553;51.640;-0.752;2023-09-07T04:31:03;101061.16;;;18.83;100.00
38812;BME280;24553;51.640;-0.752;2023-09-07T04:33:32;101061.16;;;18.83;100.00
38812;BME280;24553;51.640;-0.752;2023-09-07T04:36:13;101059.28;;;18.84;100.00
38812;BME280;24553;51.640;-0.752;2023-09-07T04:38:40;101046.66;;;18.84;100.00
38812;BME280;24553;51.640;-0.752;2023-09-07T04:41:09;101050.88;;;18.80;100.00
38812;BME280;24553;51.640;-0.752;2023-09-07T04:43:36;101047.00;;;18.76;100.00
38812;BME280;24553;51.640;-0.752;2023-09-07T04:46:02;101050.75;;;18.75;100.00
38812;BME280;24553;51.640;-0.752;2023-09-07T04:48:28;101042.69;;;18.75;100.00
38812;BME280;24553;51.640;-0.752;2023-09-07T04:51:06;101050.06;;;18.80;100.00
38812;BME280;24553;51.640;-0.752;2023-09-07T04:53:33;101045.03;;;18.83;100.00
38812;BME280;24553;51.640;-0.752;2023-09-07T04:56:00;101038.38;;;18.86;100.00
38812;BME280;24553;51.640;-0.752;2023-09-07T04:58:25;101042.91;;;18.73;100.00
38812;BME280;24553;51.640;-0.752;2023-09-07T05:00:51;101041.03;;;18.74;100.00
38812;BME280;24553;51.640;-0.752;2023-09-07T05:03:17;101040.44;;;18.72;100.00
38812;BME280;24553;51.640;-0.752;2023-09-07T05:05:42;101045.44;;;18.68;100.00
38812;BME280;24553;51.640;-0.752;2023-09-07T05:08:09;101039.16;;;18.63;100.00
38812;BME280;24553;51.640;-0.752;2023-09-07T05:10:34;101047.31;;;18.56;100.00
38812;BME280;24553;51.640;-0.752;2023-09-07T05:13:00;101055.47;;;18.49;100.00
38812;BME280;24553;51.640;-0.752;2023-09-07T05:15:25;101054.66;;;18.49;100.00
38812;BME280;24553;51.640;-0.752;2023-09-07T05:17:52;101052.31;;;18.52;100.00
38812;BME280;24553;51.640;-0.752;2023-09-07T05:20:17;101054.66;;;18.49;100.00
38812;BME280;24553;51.640;-0.752;2023-09-07T05:22:42;101051.28;;;18.53;100.00
38812;BME280;24553;51.640;-0.752;2023-09-07T05:25:08;101049.88;;;18.51;100.00
38812;BME280;24553;51.640;-0.752;2023-09-07T05:27:34;101047.53;;;18.55;100.00
38812;BME280;24553;51.640;-0.752;2023-09-07T05:30:00;101058.16;;;18.49;100.00
38812;BME280;24553;51.640;-0.752;2023-09-07T05:32:25;101052.19;;;18.47;100.00
38812;BME280;24553;51.640;-0.752;2023-09-07T05:34:51;101054.19;;;18.52;100.00
38812;BME280;24553;51.640;-0.752;2023-09-07T05:37:16;101057.81;;;18.58;100.00
38812;BME280;24553;51.640;-0.752;2023-09-07T05:39:41;101052.09;;;18.54;100.00
38812;BME280;24553;51.640;-0.752;2023-09-07T05:42:07;101058.16;;;18.49;100.00
38812;BME280;24553;51.640;-0.752;2023-09-07T05:44:32;101064.13;;;18.51;100.00
38812;BME280;24553;51.640;-0.752;2023-09-07T05:46:57;101059.22;;;18.48;100.00
38812;BME280;24553;51.640;-0.752;2023-09-07T05:49:23;101059.78;;;18.50;100.00
38812;BME280;24553;51.640;-0.752;2023-09-07T05:51:49;101055.38;;;18.56;100.00
38812;BME280;24553;51.640;-0.752;2023-09-07T05:54:14;101061.19;;;18.53;100.00
38812;BME280;24553;51.640;-0.752;2023-09-07T05:56:39;101059.91;;;18.56;100.00
38812;BME280;24553;51.640;-0.752;2023-09-07T05:59:05;101055.81;;;18.53;100.00
38812;BME280;24553;51.640;-0.752;2023-09-07T06:01:30;101061.69;;;18.62;100.00
38812;BME280;24553;51.640;-0.752;2023-09-07T06:03:57;101062.03;;;18.65;100.00
38812;BME280;24553;51.640;-0.752;2023-09-07T06:06:22;101054.09;;;18.70;100.00
38812;BME280;24553;51.640;-0.752;2023-09-07T06:08:47;101063.94;;;18.77;100.00
38812;BME280;24553;51.640;-0.752;2023-09-07T06:11:13;101066.53;;;18.83;100.00
38812;BME280;24553;51.640;-0.752;2023-09-07T06:13:38;101068.28;;;18.78;100.00
38812;BME280;24553;51.640;-0.752;2023-09-07T06:16:03;101076.69;;;18.81;100.00
38812;BME280;24553;51.640;-0.752;2023-09-07T06:18:29;101079.97;;;18.83;100.00
38812;BME280;24553;51.640;-0.752;2023-09-07T06:20:54;101077.41;;;18.88;100.00
38812;BME280;24553;51.640;-0.752;2023-09-07T06:23:19;101085.72;;;18.99;100.00
38812;BME280;24553;51.640;-0.752;2023-09-07T06:25:45;101079.91;;;19.13;100.00
38812;BME280;24553;51.640;-0.752;2023-09-07T06:28:10;101085.25;;;19.25;100.00
38812;BME280;24553;51.640;-0.752;2023-09-07T06:30:35;101089.25;;;19.34;100.00
38812;BME280;24553;51.640;-0.752;2023-09-07T06:33:01;101091.22;;;19.39;100.00
38812;BME280;24553;51.640;-0.752;2023-09-07T06:35:26;101089.94;;;19.42;100.00
38812;BME280;24553;51.640;-0.752;2023-09-07T06:37:51;101093.22;;;19.32;100.00
38812;BME280;24553;51.640;-0.752;2023-09-07T06:40:17;101098.34;;;19.33;100.00
38812;BME280;24553;51.640;-0.752;2023-09-07T06:42:43;101097.75;;;19.43;100.00
38812;BME280;24553;51.640;-0.752;2023-09-07T06:45:09;101099.97;;;19.58;100.00
38812;BME280;24553;51.640;-0.752;2023-09-07T06:47:34;101095.28;;;19.77;100.00
38812;BME280;24553;51.640;-0.752;2023-09-07T06:50:02;101093.63;;;19.88;100.00
38812;BME280;24553;51.640;-0.752;2023-09-07T06:52:27;101090.69;;;20.01;100.00
38812;BME280;24553;51.640;-0.752;2023-09-07T06:54:53;101090.91;;;20.11;100.00
38812;BME280;24553;51.640;-0.752;2023-09-07T06:57:19;101094.72;;;20.15;100.00
38812;BME280;24553;51.640;-0.752;2023-09-07T06:59:44;101090.44;;;20.31;100.00
38812;BME280;24553;51.640;-0.752;2023-09-07T07:02:10;101097.50;;;20.49;100.00
38812;BME280;24553;51.640;-0.752;2023-09-07T07:04:35;101093.31;;;20.70;100.00
38812;BME280;24553;51.640;-0.752;2023-09-07T07:07:01;101090.50;;;20.94;100.00
38812;BME280;24553;51.640;-0.752;2023-09-07T07:09:32;101086.41;;;21.08;100.00
38812;BME280;24553;51.640;-0.752;2023-09-07T07:12:01;101075.75;;;21.18;100.00
38812;BME280;24553;51.640;-0.752;2023-09-07T07:14:27;101073.97;;;21.41;100.00
38812;BME280;24553;51.640;-0.752;2023-09-07T07:16:52;101070.28;;;21.69;100.00
38812;BME280;24553;51.640;-0.752;2023-09-07T07:19:17;101064.63;;;21.92;100.00
38812;BME280;24553;51.640;-0.752;2023-09-07T07:21:43;101065.66;;;22.13;100.00
38812;BME280;24553;51.640;-0.752;2023-09-07T07:24:08;101058.00;;;22.27;100.00
38812;BME280;24553;51.640;-0.752;2023-09-07T07:26:34;101054.16;;;22.50;100.00
38812;BME280;24553;51.640;-0.752;2023-09-07T07:28:59;101050.78;;;22.65;100.00
38812;BME280;24553;51.640;-0.752;2023-09-07T07:31:25;101052.53;;;22.81;100.00
38812;BME280;24553;51.640;-0.752;2023-09-07T07:33:50;101052.56;;;22.86;100.00
38812;BME280;24553;51.640;-0.752;2023-09-07T07:36:15;101055.41;;;23.02;100.00
38812;BME280;24553;51.640;-0.752;2023-09-07T07:38:41;101051.44;;;23.15;100.00
38812;BME280;24553;51.640;-0.752;2023-09-07T07:41:06;101046.63;;;23.22;100.00
38812;BME280;24553;51.640;-0.752;2023-09-07T07:43:32;101045.81;;;23.21;100.00
38812;BME280;24553;51.640;-0.752;2023-09-07T07:45:58;101047.53;;;23.38;100.00
38812;BME280;24553;51.640;-0.752;2023-09-07T07:48:24;101054.06;;;23.42;100.00
38812;BME280;24553;51.640;-0.752;2023-09-07T07:50:50;101044.31;;;23.46;100.00
38812;BME280;24553;51.640;-0.752;2023-09-07T07:53:15;101048.19;;;23.65;100.00
38812;BME280;24553;51.640;-0.752;2023-09-07T07:55:40;101046.69;;;23.90;100.00
38812;BME280;24553;51.640;-0.752;2023-09-07T07:58:09;101040.19;;;23.91;100.00
38812;BME280;24553;51.640;-0.752;2023-09-07T08:00:35;101046.72;;;24.05;100.00
38812;BME280;24553;51.640;-0.752;2023-09-07T08:03:01;101039.72;;;24.25;100.00
38812;BME280;24553;51.640;-0.752;2023-09-07T08:05:33;101042.69;;;24.28;100.00
38812;BME280;24553;51.640;-0.752;2023-09-07T08:07:59;101043.81;;;24.32;100.00
38812;BME280;24553;51.640;-0.752;2023-09-07T08:10:25;101047.34;;;24.43;100.00
38812;BME280;24553;51.640;-0.752;2023-09-07T08:12:54;101043.84;;;24.58;100.00
38812;BME280;24553;51.640;-0.752;2023-09-07T08:15:20;101033.25;;;24.72;100.00
38812;BME280;24553;51.640;-0.752;2023-09-07T08:17:48;101038.66;;;24.92;100.00
38812;BME280;24553;51.640;-0.752;2023-09-07T08:20:13;101031.34;;;24.98;100.00
38812;BME280;24553;51.640;-0.752;2023-09-07T08:22:39;101031.31;;;25.08;100.00
38812;BME280;24553;51.640;-0.752;2023-09-07T08:25:07;101018.84;;;25.17;100.00
38812;BME280;24553;51.640;-0.752;2023-09-07T08:27:32;101017.16;;;25.37;100.00
38812;BME280;24553;51.640;-0.752;2023-09-07T08:29:58;101025.00;;;25.49;100.00
38812;BME280;24553;51.640;-0.752;2023-09-07T08:32:24;101019.00;;;25.52;100.00
38812;BME280;24553;51.640;-0.752;2023-09-07T08:34:49;101007.84;;;25.58;100.00
38812;BME280;24553;51.640;-0.752;2023-09-07T08:37:15;101007.47;;;25.75;100.00
38812;BME280;24553;51.640;-0.752;2023-09-07T08:39:41;101005.47;;;25.96;100.00
38812;BME280;24553;51.640;-0.752;2023-09-07T08:42:06;100995.31;;;26.12;100.00
38812;BME280;24553;51.640;-0.752;2023-09-07T08:44:33;100995.78;;;26.24;100.00
38812;BME280;24553;51.640;-0.752;2023-09-07T08:46:59;100996.41;;;26.45;100.00
38812;BME280;24553;51.640;-0.752;2023-09-07T08:49:28;100989.34;;;26.49;100.00
38812;BME280;24553;51.640;-0.752;2023-09-07T08:51:54;100986.25;;;26.61;100.00
38812;BME280;24553;51.640;-0.752;2023-09-07T08:54:20;100986.16;;;26.71;100.00
38812;BME280;24553;51.640;-0.752;2023-09-07T08:56:46;100988.38;;;26.93;100.00
38812;BME280;24553;51.640;-0.752;2023-09-07T08:59:12;100989.09;;;27.04;100.00
38812;BME280;24553;51.640;-0.752;2023-09-07T09:01:37;100982.38;;;26.96;100.00
38812;BME280;24553;51.640;-0.752;2023-09-07T09:04:03;100981.97;;;27.08;100.00
38812;BME280;24553;51.640;-0.752;2023-09-07T09:06:28;100974.81;;;27.17;100.00
38812;BME280;24553;51.640;-0.752;2023-09-07T09:08:55;100974.81;;;27.17;100.00
38812;BME280;24553;51.640;-0.752;2023-09-07T09:11:23;100971.56;;;27.39;100.00
38812;BME280;24553;51.640;-0.752;2023-09-07T09:13:49;100968.69;;;27.69;100.00
38812;BME280;24553;51.640;-0.752;2023-09-07T09:16:15;100975.41;;;27.57;100.00
38812;BME280;24553;51.640;-0.752;2023-09-07T09:18:54;100970.09;;;27.66;100.00
38812;BME280;24553;51.640;-0.752;2023-09-07T09:21:21;100965.63;;;27.94;100.00
38812;BME280;24553;51.640;-0.752;2023-09-07T09:23:52;100963.91;;;27.98;100.00
38812;BME280;24553;51.640;-0.752;2023-09-07T09:26:18;100973.63;;;28.23;100.00
38812;BME280;24553;51.640;-0.752;2023-09-07T09:28:43;100971.44;;;28.39;100.00
38812;BME280;24553;51.640;-0.752;2023-09-07T09:31:13;100971.53;;;28.67;100.00
38812;BME280;24553;51.640;-0.752;2023-09-07T09:33:40;100965.19;;;28.72;100.00
38812;BME280;24553;51.640;-0.752;2023-09-07T09:36:06;100976.59;;;29.01;100.00
38812;BME280;24553;51.640;-0.752;2023-09-07T09:38:32;100971.59;;;29.08;100.00
38812;BME280;24553;51.640;-0.752;2023-09-07T09:40:59;100964.91;;;29.14;100.00
38812;BME280;24553;51.640;-0.752;2023-09-07T09:43:27;100965.81;;;29.24;100.00
38812;BME280;24553;51.640;-0.752;2023-09-07T09:45:53;100957.13;;;29.35;100.00
38812;BME280;24553;51.640;-0.752;2023-09-07T09:48:19;100962.94;;;29.43;100.00
38812;BME280;24553;51.640;-0.752;2023-09-07T09:50:49;100958.91;;;29.54;100.00
38812;BME280;24553;51.640;-0.752;2023-09-07T09:53:18;100962.56;;;29.49;100.00
38812;BME280;24553;51.640;-0.752;2023-09-07T09:55:49;100955.66;;;29.52;100.00
38812;BME280;24553;51.640;-0.752;2023-09-07T09:58:17;100952.19;;;29.74;100.00
38812;BME280;24553;51.640;-0.752;2023-09-07T10:00:44;100952.19;;;29.74;100.00
38812;BME280;24553;51.640;-0.752;2023-09-07T10:03:16;100948.72;;;29.82;100.00
38812;BME280;24553;51.640;-0.752;2023-09-07T10:05:44;100950.16;;;30.02;100.00
38812;BME280;24553;51.640;-0.752;2023-09-07T10:08:15;100948.78;;;30.13;100.00
38812;BME280;24553;51.640;-0.752;2023-09-07T10:10:42;100940.38;;;30.24;100.00
38812;BME280;24553;51.640;-0.752;2023-09-07T10:13:08;100948.22;;;30.48;100.00
38812;BME280;24553;51.640;-0.752;2023-09-07T10:15:34;100941.47;;;30.54;100.00
38812;BME280;24553;51.640;-0.752;2023-09-07T10:20:53;100935.19;;;30.84;100.00
38812;BME280;24553;51.640;-0.752;2023-09-07T10:23:20;100938.81;;;31.02;100.00
38812;BME280;24553;51.640;-0.752;2023-09-07T10:25:50;100938.94;;;30.97;100.00
38812;BME280;24553;51.640;-0.752;2023-09-07T10:28:25;100930.63;;;31.11;100.00
38812;BME280;24553;51.640;-0.752;2023-09-07T10:31:01;100932.22;;;31.21;100.00
38812;BME280;24553;51.640;-0.752;2023-09-07T10:33:29;100935.31;;;31.19;100.00
38812;BME280;24553;51.640;-0.752;2023-09-07T10:35:54;100926.44;;;31.31;100.00
38812;BME280;24553;51.640;-0.752;2023-09-07T10:38:20;100927.81;;;31.42;100.00
38812;BME280;24553;51.640;-0.752;2023-09-07T10:40:47;100925.06;;;31.51;100.00
38812;BME280;24553;51.640;-0.752;2023-09-07T10:43:13;100927.97;;;31.63;100.00
38812;BME280;24553;51.640;-0.752;2023-09-07T10:45:38;100923.75;;;31.75;100.00
38812;BME280;24553;51.640;-0.752;2023-09-07T10:48:05;100914.44;;;31.76;99.29
38812;BME280;24553;51.640;-0.752;2023-09-07T10:50:42;100909.06;;;31.88;94.42
38812;BME280;24553;51.640;-0.752;2023-09-07T10:53:07;100916.66;;;31.91;94.96
38812;BME280;24553;51.640;-0.752;2023-09-07T10:55:39;100908.75;;;31.89;93.60
38812;BME280;24553;51.640;-0.752;2023-09-07T10:58:05;100911.81;;;31.88;94.11
38812;BME280;24553;51.640;-0.752;2023-09-07T11:00:30;100911.00;;;32.22;92.84
38812;BME280;24553;51.640;-0.752;2023-09-07T11:02:56;100903.88;;;32.30;90.65
38812;BME280;24553;51.640;-0.752;2023-09-07T11:05:21;100902.22;;;32.37;91.04
38812;BME280;24553;51.640;-0.752;2023-09-07T11:07:46;100899.78;;;32.53;91.40
38812;BME280;24553;51.640;-0.752;2023-09-07T11:10:12;100908.25;;;32.69;90.47
38812;BME280;24553;51.640;-0.752;2023-09-07T11:12:38;100902.59;;;32.66;88.42
38812;BME280;24553;51.640;-0.752;2023-09-07T11:15:04;100902.81;;;32.90;87.75
38812;BME280;24553;51.640;-0.752;2023-09-07T11:17:29;100904.28;;;32.88;87.74
38812;BME280;24553;51.640;-0.752;2023-09-07T11:19:55;100903.19;;;32.80;86.23
38812;BME280;24553;51.640;-0.752;2023-09-07T11:22:20;100907.28;;;32.74;86.64
38812;BME280;24553;51.640;-0.752;2023-09-07T11:24:46;100902.69;;;32.87;86.11
38812;BME280;24553;51.640;-0.752;2023-09-07T11:27:11;100892.91;;;32.98;85.58
38812;BME280;24553;51.640;-0.752;2023-09-07T11:29:36;100892.88;;;33.07;86.99
38812;BME280;24553;51.640;-0.752;2023-09-07T11:32:06;100887.19;;;33.12;85.71
38812;BME280;24553;51.640;-0.752;2023-09-07T11:34:32;100872.19;;;33.09;84.01
38812;BME280;24553;51.640;-0.752;2023-09-07T11:36:57;100870.66;;;33.20;83.93
38812;BME280;24553;51.640;-0.752;2023-09-07T11:39:23;100868.91;;;33.37;84.13
38812;BME280;24553;51.640;-0.752;2023-09-07T11:41:48;100871.31;;;33.38;84.33
38812;BME280;24553;51.640;-0.752;2023-09-07T11:44:13;100864.69;;;33.60;83.50
38812;BME280;24553;51.640;-0.752;2023-09-07T11:46:39;100859.66;;;33.41;80.13
38812;BME280;24553;51.640;-0.752;2023-09-07T11:49:04;100865.84;;;33.51;80.48
38812;BME280;24553;51.640;-0.752;2023-09-07T11:51:30;100859.75;;;33.99;79.16
38812;BME280;24553;51.640;-0.752;2023-09-07T11:53:56;100861.38;;;34.00;77.52
38812;BME280;24553;51.640;-0.752;2023-09-07T11:56:21;100869.09;;;34.19;75.88
38812;BME280;24553;51.640;-0.752;2023-09-07T11:58:47;100855.69;;;34.18;74.97
38812;BME280;24553;51.640;-0.752;2023-09-07T12:01:13;100858.19;;;33.23;77.10
38812;BME280;24553;51.640;-0.752;2023-09-07T12:03:39;100854.78;;;33.05;77.37
38812;BME280;24553;51.640;-0.752;2023-09-07T12:06:05;100851.34;;;32.78;75.51
38812;BME280;24553;51.640;-0.752;2023-09-07T12:08:30;100851.75;;;32.30;77.82
38812;BME280;24553;51.640;-0.752;2023-09-07T12:10:55;100855.38;;;31.96;77.97
38812;BME280;24553;51.640;-0.752;2023-09-07T12:13:20;100848.16;;;31.73;82.46
38812;BME280;24553;51.640;-0.752;2023-09-07T12:15:46;100848.44;;;31.98;81.49
38812;BME280;24553;51.640;-0.752;2023-09-07T12:18:11;100838.09;;;32.12;80.43
38812;BME280;24553;51.640;-0.752;2023-09-07T12:20:36;100841.09;;;32.28;81.32
38812;BME280;24553;51.640;-0.752;2023-09-07T12:23:02;100841.34;;;32.53;79.90
38812;BME280;24553;51.640;-0.752;2023-09-07T12:25:28;100840.53;;;32.82;79.88
38812;BME280;24553;51.640;-0.752;2023-09-07T12:27:53;100841.81;;;32.76;75.31
38812;BME280;24553;51.640;-0.752;2023-09-07T12:30:19;100843.53;;;32.59;74.45